Terminal Aerodrome Forecast
Issued by NWS

Home | Current Version | Previous Version | Text Only | Print | Product List | Glossary On
Versions: 1 2 3 4 5 6 7 8 9 10 11 12 13 14
000
FTUS43 KICT 291700
TAFHUT
TAF
KHUT 291739Z 2918/3018 VRB05KT P6SM SKC
     FM300200 09007KT P6SM SCT070
     FM300300 09010KT P6SM VCSH SCT040 OVC070
     FM301000 09007KT P6SM SHRA SCT015 OVC025
     FM301400 09007KT 5SM SHRA BR SCT008 OVC015=

USA.gov is the U.S. government's official web portal to all federal, state and local government web resources and services.